DNAADNMA

Guest
Details From DNAA - NNAMDI AZIKIWE INTL
To DNMA - MAIDUGURI
Flight Number -
Tags generated
Created
Modified
Stats Distance 390 nm / 722 km
Max Altitude 35,000 ft / 10,668 m
Waypoints 5
Social Downloads 0
Likes 0
Share VATSIM

Download

Looking for another format? Having issues loading an existing format? Contact us
Advertisement - Login to hide

Notes

Basic altitude profile: - Ascent Rate: 2500ft/min - Ascent Speed: 250kts - Cruise Altitude: 35000ft - Cruise Speed: 420kts - Descent Rate: 1500ft/min - Descent Speed: 250kts Options: - Use NATs: yes - Use PACOTS: yes - Use low airways: yes - Use high airways: yes

Route

DNAA JOS UH223 POSIB H223 MIU DNMA

ID Type Via Altitude Latitude Longitude Leg Dist Tot Dist Heading (true) Name
O DNAA APT - 0 ft / 0 m 9.00679˚ 7.26317˚ - 0 nm - NNAMDI AZIKIWE INTL
JOS VOR - 35,000 ft / 10,668 m 9.64219˚ 8.84300˚ 101 nm 101 nm 68° / 68° JOS VOR-DME
POSIB FIX UH223 (AWY-HI) 31,500 ft / 9,601 m 10.72345˚ 10.87932˚ 136 nm 237 nm 61° / 62° -
MIU VOR H223 (AWY-LO) 8,500 ft / 2,591 m 11.88816˚ 13.11666˚ 149 nm 387 nm 62° / 62° MAIDUGURI VOR-DME
O DNMA APT - 0 ft / 0 m 11.85524˚ 13.08129˚ 2 nm 389 nm 226° / 226° MAIDUGURI

Altitude Profile

Advertisement - Login to hide

Weather


0- 5 10 15 20 25 30 35+ Temperature / ° C

Clouds and Precipitation
Forecast for 2017-12-17 12:00 UTC. Updated an hour ago

Ground ~20,000 ft ~40,000 ft Winds

DNAA

Details ICAO DNAA (ABV)
Name NNAMDI AZIKIWE INTL
Region Nigeria
Timezone Africa/Lagos (UTC+1.0)
Stats Elevation 1,123 ft / 342 m (AMSL)
Location 9.006790° 7.263171°
Runways 1
Magnetic Variation 0.813° W

METAR

Not found

TAF

TAF DNAA 170330Z 1706/1812 06006KT CAVOK TEMPO 1706/1709 12010KT

Decode

Departure Runways

ID Width Length Bearing (true) Bearing (mag) Surface Threshold Offset Overrun Length
04 197 ft / 60 m 11,883 ft / 3,622 m 34.91° 35.72° Asphalt 0 ft / 0 m 210 ft / 64 m
22 197 ft / 60 m 11,883 ft / 3,622 m 214.91° 215.72° Asphalt 0 ft / 0 m 210 ft / 64 m

DNMA

Details ICAO DNMA (MIU)
Name MAIDUGURI
Region Nigeria
Timezone Africa/Lagos (UTC+1.0)
Stats Elevation 1,099 ft / 335 m (AMSL)
Location 11.855243° 13.081285°
Runways 1
Magnetic Variation 0.782° E

METAR

Not found

TAF

TAF DNMA 170330Z 1706/1812 32006KT 3000 HZ NSC TEMPO 1712/1716 06012KT 5000

Decode

Destination Runways

ID Width Length Bearing (true) Bearing (mag) Surface Threshold Offset Overrun Length
05 197 ft / 60 m 9,866 ft / 3,007 m 46.51° 45.73° Asphalt 0 ft / 0 m 333 ft / 102 m
23 197 ft / 60 m 9,866 ft / 3,007 m 226.51° 225.73° Asphalt 0 ft / 0 m 336 ft / 102 m

Approach Navaids

Runway Type Ident Frequency Range Bearing (true) Bearing (mag) Slope Elevation
05 Localiser IMA 110.30 MHz 18 nm / 33 km 46.51° 45.73° - 1,096 ft / 334 m (AMSL)
05 Glidescope IMA 110.30 MHz 10 nm / 19 km 46.51° 45.73° 3.00° 1,138 ft / 347 m (AMSL)
05 DME IMA 110.80 MHz 18 nm / 33 km - - - 1,222 ft / 372 m (AMSL)

Popular Alternatives